Elk City, Kansas
Current Conditions -  °F | °C
As of 11:55 AM on Thursday 23 Oct 2014 (Local Time) from KIDP Reporting Station
Overcast Overcast  
Wind Chill: 17°   Ceiling: 1200
Heat Index: 17°   Visibility: 10mi
Dew Point: 13°   Wind: 13mph
Humidity: 77%   Direction: 180°S
Pressure: 30.15"   Gusts: 18mph
Location:  37.29°N, 95.91°W
Report Text: KIDP 231655Z AUTO 18011G16KT 10SM OVC012 17/13 A3015 RMK AO2
Loading
Personal Weather Stations






























Interactive Weather Map
Tropical Storm Tracking
New forecast layout! Learn more

10-Day Weather Forecast

Advertisements
Track Severe Weather on mobile